createdAt,value
2022-07-27T00:02:27.140Z,20.10
2022-07-27T00:07:20.440Z,20.20
2022-07-27T00:12:15.212Z,20.40
2022-07-27T00:17:08.616Z,20.30
2022-07-27T00:22:02.046Z,20.30
2022-07-27T00:26:55.453Z,20.30
2022-07-27T00:31:50.332Z,20.30
2022-07-27T00:36:43.682Z,20.50
2022-07-27T00:41:37.031Z,20.60
2022-07-27T00:46:30.792Z,20.50
2022-07-27T00:51:26.903Z,20.40
2022-07-27T00:56:20.632Z,20.30
2022-07-27T01:01:14.314Z,20.40
2022-07-27T01:06:08.629Z,20.30
2022-07-27T01:11:05.952Z,20.10
2022-07-27T01:16:00.105Z,20.10
2022-07-27T01:20:53.572Z,20.10
2022-07-27T01:25:48.793Z,20.10
2022-07-27T01:30:42.337Z,20.00
2022-07-27T01:35:37.468Z,19.90
2022-07-27T01:40:30.937Z,19.70
2022-07-27T01:45:25.772Z,19.80
2022-07-27T01:50:19.116Z,19.90
2022-07-27T01:55:13.348Z,20.00
2022-07-27T02:00:11.880Z,20.10
2022-07-27T02:05:08.706Z,20.10
2022-07-27T02:10:02.042Z,20.00
2022-07-27T02:14:55.321Z,19.90
2022-07-27T02:19:48.876Z,19.90
2022-07-27T02:24:44.040Z,19.90
2022-07-27T02:29:37.390Z,19.80
2022-07-27T02:34:31.025Z,19.70
2022-07-27T02:39:24.372Z,19.70
2022-07-27T02:44:20.246Z,19.80
2022-07-27T02:49:13.967Z,19.80
2022-07-27T02:54:07.799Z,19.90
2022-07-27T02:59:01.109Z,19.90
2022-07-27T03:03:55.857Z,19.70
2022-07-27T03:08:50.195Z,19.60
2022-07-27T03:13:43.627Z,19.40
2022-07-27T03:18:37.035Z,19.30
2022-07-27T03:23:31.776Z,19.10
2022-07-27T03:28:25.173Z,19.00
2022-07-27T03:33:18.565Z,19.00
2022-07-27T03:38:12.238Z,18.90
2022-07-27T03:43:06.978Z,18.90
2022-07-27T03:48:00.596Z,18.90
2022-07-27T03:52:54.375Z,18.80
2022-07-27T03:57:48.046Z,18.80
2022-07-27T04:02:43.460Z,18.80
2022-07-27T04:07:37.181Z,18.80
2022-07-27T04:12:30.563Z,18.80
2022-07-27T04:17:54.953Z,18.80
2022-07-27T04:22:40.272Z,18.70
2022-07-27T04:27:33.858Z,18.70
2022-07-27T04:32:27.167Z,18.80
2022-07-27T04:37:20.497Z,18.80
2022-07-27T04:42:15.237Z,18.80
2022-07-27T04:47:08.668Z,18.90
2022-07-27T04:52:02.113Z,18.90
2022-07-27T04:56:55.456Z,18.90
2022-07-27T05:01:50.235Z,18.80
2022-07-27T05:06:43.619Z,18.90
2022-07-27T05:11:37.082Z,18.90
2022-07-27T05:16:30.416Z,19.00
2022-07-27T05:21:25.295Z,19.20
2022-07-27T05:26:18.686Z,19.40
2022-07-27T05:31:12.412Z,19.70
2022-07-27T05:36:07.758Z,19.90
2022-07-27T05:41:02.652Z,20.20
2022-07-27T05:45:56.428Z,20.30
2022-07-27T05:50:49.760Z,20.60
2022-07-27T05:55:59.434Z,20.80
2022-07-27T06:00:54.729Z,20.70
2022-07-27T06:05:48.077Z,20.70
2022-07-27T06:10:41.756Z,20.40
2022-07-27T06:15:35.984Z,20.30
2022-07-27T06:20:32.403Z,20.30
2022-07-27T06:25:34.600Z,20.30
2022-07-27T06:30:29.255Z,20.30
2022-07-27T06:35:23.239Z,20.20
2022-07-27T06:40:18.102Z,20.20
2022-07-27T06:45:12.735Z,20.30
2022-07-27T06:50:07.653Z,20.50
2022-07-27T06:55:01.034Z,20.70
2022-07-27T06:59:55.727Z,21.00
2022-07-27T07:04:49.164Z,21.00
2022-07-27T07:09:42.527Z,21.20
2022-07-27T07:14:36.794Z,21.20
2022-07-27T07:19:31.570Z,21.20
2022-07-27T07:24:24.877Z,21.20
2022-07-27T07:29:18.707Z,21.20
2022-07-27T07:34:12.052Z,21.10
2022-07-27T07:39:06.965Z,21.10
2022-07-27T07:44:00.451Z,21.40
2022-07-27T07:48:53.892Z,21.50
2022-07-27T07:53:47.250Z,21.70
2022-07-27T07:58:41.984Z,22.00
2022-07-27T08:03:35.427Z,22.20
2022-07-27T08:08:30.169Z,22.40
2022-07-27T08:13:23.780Z,22.60
2022-07-27T08:18:19.033Z,22.60
2022-07-27T08:23:13.220Z,22.80
2022-07-27T08:28:07.551Z,23.00
2022-07-27T08:33:03.474Z,23.10
2022-07-27T08:37:58.986Z,23.30
2022-07-27T08:42:52.417Z,23.50
2022-07-27T08:47:46.796Z,23.80
2022-07-27T08:52:40.586Z,23.50
2022-07-27T08:57:35.355Z,23.40
2022-07-27T09:02:28.763Z,23.40
2022-07-27T09:07:31.649Z,23.60
2022-07-27T09:12:30.525Z,23.80
2022-07-27T09:17:48.018Z,23.90
2022-07-27T09:22:49.769Z,23.90
2022-07-27T09:27:45.791Z,24.00
2022-07-27T09:32:52.963Z,23.90
2022-07-27T09:37:47.068Z,23.50
2022-07-27T09:43:06.756Z,23.70
2022-07-27T09:48:08.233Z,23.60
2022-07-27T09:53:42.427Z,23.80
2022-07-27T09:58:47.970Z,24.50
2022-07-27T10:03:44.254Z,25.10
2022-07-27T10:08:39.465Z,25.50
2022-07-27T10:13:33.195Z,25.70
2022-07-27T10:18:56.091Z,25.50
2022-07-27T10:23:58.155Z,25.70
2022-07-27T10:28:54.891Z,26.00
2022-07-27T10:33:52.989Z,26.20
2022-07-27T10:38:49.573Z,26.10
2022-07-27T10:43:42.909Z,25.90
2022-07-27T10:48:42.771Z,25.60
2022-07-27T10:58:59.089Z,25.60
2022-07-27T11:03:53.735Z,25.40
2022-07-27T11:09:12.109Z,24.90
2022-07-27T11:14:04.390Z,24.60
2022-07-27T11:19:05.601Z,24.40
2022-07-27T11:24:04.100Z,24.30
2022-07-27T11:29:00.123Z,24.40
2022-07-27T11:33:59.922Z,24.40
2022-07-27T11:38:55.920Z,24.40
2022-07-27T11:43:50.701Z,24.40
2022-07-27T11:49:05.987Z,24.30
2022-07-27T11:54:03.851Z,24.40
2022-07-27T11:59:15.263Z,24.40
2022-07-27T12:04:14.052Z,24.60
2022-07-27T12:09:13.093Z,24.60
2022-07-27T12:14:15.129Z,24.60
2022-07-27T12:19:08.688Z,24.30
2022-07-27T12:24:02.114Z,24.20
2022-07-27T12:29:08.532Z,24.20
2022-07-27T12:34:06.454Z,24.50
2022-07-27T12:39:00.146Z,24.90
2022-07-27T12:44:08.406Z,25.00
2022-07-27T12:49:17.197Z,24.90
2022-07-27T12:54:10.851Z,25.00
2022-07-27T12:59:05.689Z,25.30
2022-07-27T13:03:59.122Z,25.60
2022-07-27T13:08:54.462Z,25.50
2022-07-27T13:13:47.887Z,25.40
2022-07-27T13:18:41.234Z,25.40
2022-07-27T13:23:34.630Z,25.40
2022-07-27T13:28:29.608Z,25.30
2022-07-27T13:33:22.940Z,25.30
2022-07-27T13:38:16.851Z,25.20
2022-07-27T13:43:12.216Z,25.20
2022-07-27T13:48:07.583Z,25.30
2022-07-27T13:53:00.964Z,25.40
2022-07-27T13:57:54.298Z,25.50
2022-07-27T14:02:47.867Z,25.50
2022-07-27T14:07:43.616Z,25.30
2022-07-27T14:12:37.007Z,25.10
2022-07-27T14:17:30.457Z,25.00
2022-07-27T14:22:23.965Z,24.90
2022-07-27T14:27:18.705Z,25.00
2022-07-27T14:32:12.169Z,25.20
2022-07-27T14:37:06.460Z,25.40
2022-07-27T14:42:01.444Z,25.40
2022-07-27T14:46:57.026Z,25.40
2022-07-27T14:51:52.656Z,25.40
2022-07-27T14:56:45.956Z,25.30
2022-07-27T15:01:39.789Z,25.30
2022-07-27T15:06:38.889Z,25.40
2022-07-27T15:11:33.046Z,25.40
2022-07-27T15:16:26.471Z,25.30
2022-07-27T15:21:19.914Z,25.30
2022-07-27T15:26:14.691Z,25.30
2022-07-27T15:31:08.153Z,25.20
2022-07-27T15:36:01.561Z,25.30
2022-07-27T15:40:54.898Z,25.20
2022-07-27T15:45:51.784Z,25.20
2022-07-27T15:50:49.019Z,25.30
2022-07-27T15:55:44.658Z,25.40
2022-07-27T16:00:40.519Z,25.50
2022-07-27T16:05:35.742Z,25.50
2022-07-27T16:10:30.082Z,25.50
2022-07-27T16:15:44.260Z,25.50
2022-07-27T16:20:39.238Z,25.60
2022-07-27T16:26:00.873Z,25.60
2022-07-27T16:30:46.050Z,25.50
2022-07-27T16:35:42.830Z,25.40
2022-07-27T16:40:36.286Z,25.40
2022-07-27T16:45:29.652Z,25.50
2022-07-27T16:50:23.309Z,25.50
2022-07-27T16:55:18.225Z,25.40
2022-07-27T17:00:13.086Z,25.40
2022-07-27T17:05:09.791Z,25.30
2022-07-27T17:10:03.128Z,25.30
2022-07-27T17:14:57.984Z,25.10
2022-07-27T17:19:51.279Z,25.00
2022-07-27T17:24:44.857Z,24.90
2022-07-27T17:29:38.341Z,24.80
2022-07-27T17:34:33.302Z,24.60
2022-07-27T17:39:28.486Z,24.50
2022-07-27T17:44:21.840Z,24.50
2022-07-27T17:49:15.841Z,24.40
2022-07-27T17:54:10.997Z,24.30
2022-07-27T17:59:20.386Z,24.40
2022-07-27T18:04:18.466Z,24.50
2022-07-27T18:09:14.594Z,24.50
2022-07-27T18:14:13.146Z,24.40
2022-07-27T18:26:33.435Z,24.20
2022-07-27T18:31:04.450Z,24.00
2022-07-27T18:36:00.167Z,23.90
2022-07-27T18:40:59.334Z,23.80
2022-07-27T18:46:53.995Z,23.70
2022-07-27T18:52:14.323Z,23.70
2022-07-27T18:57:14.558Z,23.50
2022-07-27T19:02:22.628Z,23.40
2022-07-27T19:07:17.770Z,23.30
2022-07-27T19:12:17.174Z,23.20
2022-07-27T19:17:16.394Z,23.10
2022-07-27T19:22:40.415Z,23.10
2022-07-27T19:28:04.657Z,22.90
2022-07-27T19:33:03.223Z,23.00
2022-07-27T19:38:01.171Z,22.90
2022-07-27T19:43:14.125Z,22.90
2022-07-27T19:55:34.648Z,23.00
2022-07-27T20:00:31.266Z,23.00
2022-07-27T20:05:26.762Z,22.90
2022-07-27T20:10:21.869Z,22.90
2022-07-27T20:27:34.606Z,22.70
2022-07-27T20:32:29.977Z,22.70
2022-07-27T20:37:50.175Z,22.60
2022-07-27T20:42:47.536Z,22.60
2022-07-27T20:47:43.196Z,22.50
2022-07-27T20:52:36.962Z,22.50
2022-07-27T20:57:30.708Z,22.60
2022-07-27T21:02:24.096Z,22.60
2022-07-27T21:07:29.012Z,22.40
2022-07-27T21:12:22.578Z,22.40
2022-07-27T21:17:36.387Z,22.30
2022-07-27T21:22:34.717Z,22.10
2022-07-27T21:27:29.765Z,22.20
2022-07-27T21:32:24.435Z,22.10
2022-07-27T21:37:17.824Z,22.00
2022-07-27T21:42:12.974Z,22.10
2022-07-27T21:47:11.561Z,22.00
2022-07-27T21:52:07.746Z,22.10
2022-07-27T21:57:01.027Z,21.90
2022-07-27T22:01:55.933Z,21.70
2022-07-27T22:06:49.328Z,21.60
2022-07-27T22:11:42.701Z,21.40
2022-07-27T22:16:36.058Z,21.40
2022-07-27T22:21:30.944Z,21.40
2022-07-27T22:26:24.294Z,21.10
2022-07-27T22:31:22.712Z,21.00
2022-07-27T22:36:16.761Z,21.00
2022-07-27T22:41:11.607Z,20.80
2022-07-27T22:46:07.277Z,20.80
2022-07-27T22:51:00.732Z,20.70
2022-07-27T22:55:54.124Z,20.60
2022-07-27T23:00:49.066Z,20.50
2022-07-27T23:05:42.585Z,20.50
2022-07-27T23:10:48.276Z,20.70
2022-07-27T23:15:42.549Z,20.90
2022-07-27T23:20:37.847Z,21.00
2022-07-27T23:25:36.396Z,21.00
2022-07-27T23:30:30.023Z,21.10
2022-07-27T23:35:23.766Z,20.70
2022-07-27T23:40:18.592Z,20.70
2022-07-27T23:45:12.664Z,20.60
2022-07-27T23:50:07.134Z,20.60
2022-07-27T23:55:01.075Z,20.40
2022-07-27T23:59:55.830Z,20.30
